Time;durP1;ratioP1;P1;durP2;ratioP2;P2;SDS_P1;SDS_P2;PMS_P1;PMS_P2;Temp;Humidity;BMP_temperature;BMP_pressure;BME280_temperature;BME280_humidity;BME280_pressure;Samples;Min_cycle;Max_cycle;Signal;HPM_P1;HPM_P2
2021/12/20 00:14:03;;;;;;;;;;;6.90;99.90;;;;;;5687172;23;12295452;-88
2021/12/20 00:17:27;;;;;;;;;;;6.90;99.90;;;;;;6200790;23;19912;-89
2021/12/20 00:20:47;;;;;;;;;;;6.90;99.90;;;;;;6182938;23;19921;-87
2021/12/20 00:23:16;;;;;;;;;;;6.90;99.90;;;;;;6176497;23;19924;-87
2021/12/20 00:25:48;;;;;;;;;;;6.90;99.90;;;;;;6146983;23;19931;-88
2021/12/20 00:28:18;;;;;;;;;;;7.00;99.90;;;;;;6148363;23;19924;-87
2021/12/20 00:30:47;;;;;;;;;;;6.80;99.90;;;;;;6149385;23;20391;-88
2021/12/20 00:33:15;;;;;;;;;;;6.80;99.90;;;;;;6124948;23;19921;-89
2021/12/20 00:35:44;;;;;;;;;;;6.80;99.90;;;;;;6148862;23;20352;-88
2021/12/20 00:40:59;;;;;;;;;;;6.80;99.90;;;;;;6148824;23;19931;-88
2021/12/20 00:43:29;;;;;;;;;;;5.10;99.90;;;;;;6148953;23;19921;-87
2021/12/20 00:45:58;;;;;;;;;;;6.90;99.90;;;;;;6149528;23;19921;-89
2021/12/20 00:48:28;;;;;;;;;;;7.10;99.90;;;;;;6124832;23;19931;-88
2021/12/20 00:51:00;;;;;;;;;;;6.90;99.90;;;;;;6148736;23;19939;-87
2021/12/20 00:53:28;;;;;;;;;;;6.70;99.90;;;;;;6122463;23;19939;-88
2021/12/20 00:55:56;;;;;;;;;;;6.60;99.90;;;;;;6116259;23;19935;-87
2021/12/20 00:58:24;;;;;;;;;;;7.00;99.90;;;;;;6122652;22;19927;-87
2021/12/20 01:00:58;;;;;;;;;;;8.40;99.90;;;;;;6233165;23;19919;-87
2021/12/20 01:03:53;;;;;;;;;;;6.80;99.90;;;;;;6213893;23;19919;-87
2021/12/20 01:06:51;;;;;;;;;;;6.90;99.90;;;;;;6215240;23;19926;-90
2021/12/20 01:10:03;;;;;;;;;;;6.80;99.90;;;;;;6190467;23;19923;-89
2021/12/20 01:14:21;;;;;;;;;;;6.80;99.90;;;;;;6281298;23;19912;-88
2021/12/20 01:17:50;;;;;;;;;;;6.90;99.90;;;;;;6241727;23;19908;-89
2021/12/20 01:21:59;;;;;;;;;;;7.80;99.90;;;;;;6268910;23;19920;-89
2021/12/20 01:24:50;;;;;;;;;;;6.70;99.90;;;;;;6213184;23;19920;-88
2021/12/20 01:28:20;;;;;;;;;;;5.30;99.90;;;;;;6236007;23;19916;-88
2021/12/20 01:31:05;;;;;;;;;;;5.60;99.90;;;;;;6212513;23;19964;-88
2021/12/20 01:34:18;;;;;;;;;;;6.80;99.90;;;;;;6214467;23;19953;-87
2021/12/20 01:37:15;;;;;;;;;;;6.70;99.90;;;;;;6190117;23;19908;-89
2021/12/20 01:40:23;;;;;;;;;;;6.00;99.90;;;;;;6202289;23;19924;-88
2021/12/20 01:43:14;;;;;;;;;;;6.80;99.90;;;;;;6184270;23;19936;-88
2021/12/20 01:45:56;;;;;;;;;;;6.80;99.90;;;;;;6183579;23;19920;-88
2021/12/20 01:48:55;;;;;;;;;;;5.30;99.90;;;;;;6235968;23;19920;-87
2021/12/20 01:54:53;;;;;;;;;;;6.90;99.90;;;;;;6177450;23;19930;-89
2021/12/20 02:01:24;;;;;;;;;;;6.80;99.90;;;;;;6169292;23;19931;-89
2021/12/20 02:04:13;;;;;;;;;;;6.80;99.90;;;;;;6176890;23;19930;-88
2021/12/20 02:06:56;;;;;;;;;;;5.90;99.90;;;;;;6174072;23;19927;-88
2021/12/20 02:09:43;;;;;;;;;;;7.00;99.90;;;;;;6177341;23;19936;-88
2021/12/20 02:12:39;;;;;;;;;;;6.80;99.90;;;;;;6215436;23;19924;-88
2021/12/20 02:15:28;;;;;;;;;;;7.10;99.90;;;;;;6183117;23;19920;-88
2021/12/20 02:18:05;;;;;;;;;;;7.90;99.90;;;;;;6158717;23;19968;-88
2021/12/20 02:20:49;;;;;;;;;;;6.90;99.90;;;;;;6175123;23;19919;-88
2021/12/20 02:23:32;;;;;;;;;;;6.90;99.90;;;;;;6154954;23;19916;-87
2021/12/20 03:01:34;;;;;;;;;;;7.00;99.90;;;;;;6235312;23;19995;-82
2021/12/20 03:04:31;;;;;;;;;;;;;;;;;;;;;
2021/12/20 03:13:22;;;;;;;;;;;;;;;;;;;;;
2021/12/20 03:16:34;;;;;;;;;;;;;;;;;;;;;
2021/12/20 03:35:20;;;;;;;;;;;6.70;99.90;;;;;;5805426;24;19921;-83
2021/12/20 03:38:24;;;;;;;;;;;6.80;99.90;;;;;;5862823;24;19922;-82
2021/12/20 03:42:20;;;;;;;;;;;7.50;99.90;;;;;;5801806;24;19934;-83
2021/12/20 03:46:00;;;;;;;;;;;;;;;;;;;;;
2021/12/20 03:49:38;;;;;;;;;;;;;;;;;;;;;
2021/12/20 03:53:20;;;;;;;;;;;5.20;99.90;;;;;;5831576;24;19930;-83
2021/12/20 03:56:59;;;;;;;;;;;7.70;99.90;;;;;;5887666;24;19933;-83
2021/12/20 04:04:30;;;;;;;;;;;6.20;99.90;;;;;;6002264;23;19923;-82
2021/12/20 04:11:35;;;;;;;;;;;7.00;99.90;;;;;;5905556;23;19915;-82
2021/12/20 04:14:07;;;;;;;;;;;6.90;99.90;;;;;;6008898;23;19950;-82
2021/12/20 04:16:56;;;;;;;;;;;6.90;99.90;;;;;;6022923;23;19929;-84
2021/12/20 04:19:34;;;;;;;;;;;6.90;99.90;;;;;;6000532;23;19922;-81
2021/12/20 04:22:21;;;;;;;;;;;;;;;;;;;;;
2021/12/20 04:24:54;;;;;;;;;;;6.90;99.90;;;;;;6158804;23;19920;-82
2021/12/20 04:27:43;;;;;;;;;;;7.60;99.90;;;;;;6169486;23;19930;-82
2021/12/20 04:30:54;;;;;;;;;;;6.90;99.90;;;;;;6176929;23;19919;-82
2021/12/20 04:34:17;;;;;;;;;;;7.00;99.90;;;;;;6216143;23;20559;-82
2021/12/20 04:37:25;;;;;;;;;;;6.90;99.90;;;;;;6256094;23;19926;-82
2021/12/20 04:40:21;;;;;;;;;;;7.00;99.90;;;;;;6194383;23;19919;-82
2021/12/20 04:43:04;;;;;;;;;;;7.20;99.90;;;;;;6269125;23;19945;-82
2021/12/20 04:46:46;;;;;;;;;;;;;;;;;;;;;
2021/12/20 04:50:51;;;;;;;;;;;7.00;99.90;;;;;;6016282;23;19922;-83
2021/12/20 05:18:51;;;;;;;;;;;;;;;;;;;;;
2021/12/20 05:21:58;;;;;;;;;;;;;;;;;;;;;
2021/12/20 05:46:25;;;;;;;;;;;;;;;;;;;;;
2021/12/20 05:50:11;;;;;;;;;;;6.60;99.90;;;;;;5962987;24;19927;-84
2021/12/20 05:53:32;;;;;;;;;;;6.90;99.90;;;;;;5940303;24;20063;-83
2021/12/20 05:56:44;;;;;;;;;;;6.60;99.90;;;;;;5989518;23;19932;-82
2021/12/20 05:59:36;;;;;;;;;;;7.00;99.90;;;;;;5997167;24;19926;-82
2021/12/20 06:06:17;;;;;;;;;;;6.60;99.90;;;;;;5988807;24;20018;-82
2021/12/20 06:09:29;;;;;;;;;;;6.40;99.90;;;;;;5894757;24;19927;-81
2021/12/20 06:12:25;;;;;;;;;;;6.50;99.90;;;;;;5913536;24;19927;-82
2021/12/20 06:15:41;;;;;;;;;;;6.60;99.90;;;;;;6011671;23;20248;-83
2021/12/20 06:18:22;;;;;;;;;;;8.00;99.90;;;;;;6021228;23;19937;-82
2021/12/20 06:22:10;;;;;;;;;;;;;;;;;;;;;
2021/12/20 06:26:00;;;;;;;;;;;;;;;;;;;;;
2021/12/20 06:36:29;;;;;;;;;;;7.00;99.90;;;;;;5130617;27;19979;-88
2021/12/20 06:39:00;;;;;;;;;;;6.40;99.90;;;;;;5120440;28;19924;-89
2021/12/20 06:41:31;;;;;;;;;;;6.90;99.90;;;;;;5087576;28;19931;-91
2021/12/20 06:44:15;;;;;;;;;;;5.60;99.90;;;;;;5096620;28;19932;-88
2021/12/20 06:46:48;;;;;;;;;;;6.70;99.90;;;;;;5102585;28;19932;-91
2021/12/20 06:49:33;;;;;;;;;;;6.80;99.90;;;;;;5127321;28;19938;-90
2021/12/20 06:52:10;;;;;;;;;;;6.70;99.90;;;;;;5110248;28;19923;-90
2021/12/20 06:54:43;;;;;;;;;;;6.60;99.90;;;;;;5111900;28;19924;-91
2021/12/20 06:57:28;;;;;;;;;;;6.70;99.90;;;;;;5101597;28;19934;-89
2021/12/20 07:00:03;;;;;;;;;;;6.70;99.90;;;;;;5095842;28;19928;-89
2021/12/20 07:02:47;;;;;;;;;;;6.70;99.90;;;;;;5107761;28;19939;-89
2021/12/20 07:05:29;;;;;;;;;;;6.80;99.90;;;;;;5090183;28;19924;-88
2021/12/20 07:08:02;;;;;;;;;;;6.20;99.90;;;;;;5089004;28;19930;-89
2021/12/20 07:10:42;;;;;;;;;;;6.50;99.90;;;;;;5090570;28;19924;-89
2021/12/20 07:13:39;;;;;;;;;;;7.30;99.90;;;;;;5111813;28;19924;-90
2021/12/20 07:16:24;;;;;;;;;;;7.00;99.90;;;;;;5094272;28;19924;-88
2021/12/20 07:19:21;;;;;;;;;;;6.60;99.90;;;;;;5104295;28;20397;-90
2021/12/20 07:26:05;;;;;;;;;;;6.60;99.90;;;;;;5132885;22;19946;-83
2021/12/20 07:28:44;;;;;;;;;;;6.60;99.90;;;;;;5095274;28;19932;-82
2021/12/20 07:31:28;;;;;;;;;;;6.70;99.90;;;;;;5086334;28;19928;-84
2021/12/20 07:34:00;;;;;;;;;;;6.80;99.90;;;;;;5095481;28;19928;-82
2021/12/20 07:36:33;;;;;;;;;;;6.60;99.90;;;;;;5099194;28;19920;-83
2021/12/20 07:39:01;;;;;;;;;;;6.70;99.90;;;;;;5084161;28;19925;-82
2021/12/20 07:41:53;;;;;;;;;;;5.80;99.90;;;;;;5100354;28;19928;-80
2021/12/20 07:44:24;;;;;;;;;;;6.80;99.90;;;;;;5101494;28;19928;-82
2021/12/20 07:47:00;;;;;;;;;;;6.70;99.90;;;;;;5058724;28;19928;-82
2021/12/20 07:49:39;;;;;;;;;;;;;;;;;;;;;
2021/12/20 07:53:03;;;;;;;;;;;7.10;99.90;;;;;;5000358;28;19926;-86
2021/12/20 07:56:18;;;;;;;;;;;;;;;;;;;;;
2021/12/20 08:04:21;;;;;;;;;;;;;;;;;;;;;
2021/12/20 08:11:53;;;;;;;;;;;;;;;;;;;;;
2021/12/20 08:15:35;;;;;;;;;;;6.70;99.90;;;;;;4777662;29;19930;-83
2021/12/20 08:18:53;;;;;;;;;;;6.10;99.90;;;;;;4826609;29;20033;-87
2021/12/20 08:22:16;;;;;;;;;;;7.10;99.90;;;;;;4798466;30;19929;-84
2021/12/20 08:25:42;;;;;;;;;;;;;;;;;;;;;
2021/12/20 08:29:40;;;;;;;;;;;7.20;99.90;;;;;;4788374;29;19940;-84
2021/12/20 08:33:19;;;;;;;;;;;;;;;;;;;;;
2021/12/20 08:36:30;;;;;;;;;;;6.60;99.90;;;;;;4801804;29;19945;-84
2021/12/20 08:39:50;;;;;;;;;;;8.50;99.90;;;;;;4850677;29;19952;-86
2021/12/20 08:47:47;;;;;;;;;;;7.00;99.90;;;;;;4880540;29;19916;-84
2021/12/20 08:55:16;;;;;;;;;;;6.00;99.90;;;;;;4894514;29;20067;-82
2021/12/20 08:58:12;;;;;;;;;;;6.60;99.90;;;;;;4913737;29;19957;-84
2021/12/20 09:04:09;;;;;;;;;;;4.90;99.90;;;;;;4900330;29;19915;-82
2021/12/20 09:06:46;;;;;;;;;;;7.00;99.90;;;;;;4935165;28;19926;-83
2021/12/20 09:09:18;;;;;;;;;;;6.60;99.90;;;;;;4996043;28;19930;-85
2021/12/20 09:11:46;;;;;;;;;;;8.70;99.90;;;;;;5005691;28;19933;-83
2021/12/20 09:14:21;;;;;;;;;;;6.80;99.90;;;;;;5018461;28;19925;-83
2021/12/20 09:16:49;;;;;;;;;;;6.80;99.90;;;;;;5061404;28;19935;-83
2021/12/20 09:19:21;;;;;;;;;;;7.10;99.90;;;;;;5080741;28;19936;-83
2021/12/20 09:21:53;;;;;;;;;;;7.20;99.90;;;;;;5083426;28;20313;-85
2021/12/20 09:24:22;;;;;;;;;;;6.90;99.90;;;;;;5083391;28;20485;-85
2021/12/20 09:26:53;;;;;;;;;;;6.80;99.90;;;;;;5081507;28;19925;-86
2021/12/20 09:29:29;;;;;;;;;;;6.60;99.90;;;;;;5066006;28;19929;-83
2021/12/20 09:32:07;;;;;;;;;;;6.90;99.90;;;;;;5066374;28;19931;-84
2021/12/20 09:34:43;;;;;;;;;;;6.90;99.90;;;;;;5065836;28;19924;-83
2021/12/20 09:37:17;;;;;;;;;;;6.40;99.90;;;;;;5059027;28;19925;-84
2021/12/20 09:40:13;;;;;;;;;;;6.80;99.90;;;;;;5052216;28;19925;-84
2021/12/20 09:42:53;;;;;;;;;;;6.90;99.90;;;;;;5061881;28;19929;-84
2021/12/20 09:45:22;;;;;;;;;;;7.30;99.90;;;;;;5068629;28;20458;-83
2021/12/20 09:48:01;;;;;;;;;;;8.10;99.90;;;;;;5067317;28;19924;-85
2021/12/20 09:50:35;;;;;;;;;;;6.90;99.90;;;;;;5097463;28;19936;-84
2021/12/20 09:53:21;;;;;;;;;;;6.90;99.90;;;;;;5064924;28;19938;-84
2021/12/20 09:56:27;;;;;;;;;;;6.50;99.90;;;;;;5013757;28;19940;-82
2021/12/20 09:59:37;;;;;;;;;;;6.90;99.90;;;;;;5083457;28;19924;-83
2021/12/20 10:02:29;;;;;;;;;;;7.30;99.90;;;;;;5087709;28;19925;-83
2021/12/20 10:05:05;;;;;;;;;;;6.00;99.90;;;;;;5088411;28;19928;-85
2021/12/20 10:07:35;;;;;;;;;;;7.50;99.90;;;;;;5078043;28;19935;-84
2021/12/20 10:13:44;;;;;;;;;;;7.00;99.90;;;;;;5064516;28;19933;-83
2021/12/20 10:17:22;;;;;;;;;;;7.50;99.90;;;;;;5062530;28;20258;-86
2021/12/20 10:20:51;;;;;;;;;;;7.40;99.90;;;;;;5079676;28;19935;-83
2021/12/20 10:23:39;;;;;;;;;;;5.80;99.90;;;;;;5066930;28;20417;-84
2021/12/20 10:26:18;;;;;;;;;;;7.30;99.90;;;;;;5061932;28;19933;-83
2021/12/20 10:29:38;;;;;;;;;;;7.20;99.90;;;;;;4967814;28;19934;-83
2021/12/20 10:33:01;;;;;;;;;;;7.20;99.90;;;;;;4968382;28;19926;-83
2021/12/20 10:36:16;;;;;;;;;;;7.40;99.90;;;;;;4921586;29;19943;-82
2021/12/20 10:38:56;;;;;;;;;;;7.50;99.90;;;;;;4927238;29;19927;-84
2021/12/20 10:42:15;;;;;;;;;;;7.50;99.90;;;;;;4962952;28;19931;-83
2021/12/20 10:45:07;;;;;;;;;;;7.60;99.90;;;;;;4967456;28;19933;-82
2021/12/20 10:47:43;;;;;;;;;;;7.60;99.90;;;;;;4971563;28;19926;-82
2021/12/20 10:50:34;;;;;;;;;;;7.50;99.90;;;;;;4964112;28;19934;-83
2021/12/20 10:53:37;;;;;;;;;;;6.20;99.90;;;;;;5010379;28;19924;-81
2021/12/20 10:56:21;;;;;;;;;;;6.90;99.90;;;;;;5046944;28;19935;-82
2021/12/20 11:05:57;;;;;;;;;;;7.90;99.90;;;;;;5059784;28;19919;-83
2021/12/20 11:09:58;;;;;;;;;;;7.70;99.90;;;;;;5064562;28;19919;-83
2021/12/20 11:12:35;;;;;;;;;;;7.60;99.90;;;;;;5094420;28;19925;-83
2021/12/20 11:15:12;;;;;;;;;;;7.70;99.90;;;;;;5078646;28;19935;-82
2021/12/20 11:17:45;;;;;;;;;;;7.70;99.90;;;;;;5067203;28;19943;-82
2021/12/20 11:20:24;;;;;;;;;;;7.80;99.90;;;;;;5065318;28;19925;-81
2021/12/20 11:23:01;;;;;;;;;;;7.80;99.90;;;;;;5067559;28;19929;-82
2021/12/20 11:25:35;;;;;;;;;;;7.90;99.90;;;;;;5070820;28;19925;-83
2021/12/20 11:28:32;;;;;;;;;;;6.70;99.90;;;;;;5084932;28;19925;-82
2021/12/20 11:31:04;;;;;;;;;;;7.80;99.90;;;;;;5067668;28;19935;-83
2021/12/20 11:33:38;;;;;;;;;;;8.80;99.90;;;;;;5081355;28;19925;-82
2021/12/20 11:36:15;;;;;;;;;;;7.40;99.90;;;;;;5062533;28;19931;-85
2021/12/20 11:39:17;;;;;;;;;;;7.90;99.90;;;;;;5064308;28;19960;-83
2021/12/20 11:41:54;;;;;;;;;;;8.20;99.90;;;;;;5081118;28;19933;-83
2021/12/20 11:45:20;;;;;;;;;;;8.00;99.90;;;;;;5063753;28;19933;-84
2021/12/20 11:48:07;;;;;;;;;;;7.60;99.90;;;;;;5097565;28;19933;-83
2021/12/20 11:54:33;;;;;;;;;;;8.90;99.90;;;;;;5078651;28;20818;-83
2021/12/20 11:57:03;;;;;;;;;;;8.20;99.90;;;;;;5066331;28;19939;-82
2021/12/20 11:59:53;;;;;;;;;;;8.30;99.90;;;;;;5058857;28;19929;-82
2021/12/20 12:02:55;;;;;;;;;;;7.10;99.90;;;;;;5067685;28;19924;-85
2021/12/20 12:05:45;;;;;;;;;;;8.20;99.90;;;;;;5068212;28;19931;-81
2021/12/20 12:08:35;;;;;;;;;;;8.30;99.90;;;;;;5064424;28;19929;-81
2021/12/20 12:11:16;;;;;;;;;;;8.30;99.90;;;;;;5077866;28;19932;-82
2021/12/20 12:14:04;;;;;;;;;;;8.70;99.90;;;;;;5065808;28;19939;-83
2021/12/20 12:16:47;;;;;;;;;;;8.40;99.90;;;;;;5079997;28;19935;-84
2021/12/20 12:19:41;;;;;;;;;;;8.40;99.90;;;;;;5062260;28;19929;-84
2021/12/20 12:29:44;;;;;;;;;;;8.50;99.90;;;;;;5059826;28;19929;-79
2021/12/20 12:32:14;;;;;;;;;;;8.50;99.90;;;;;;5063335;28;19932;-81
2021/12/20 12:39:09;;;;;;;;;;;8.50;99.90;;;;;;5063779;28;19936;-81
2021/12/20 12:41:54;;;;;;;;;;;8.60;99.90;;;;;;5090053;28;19938;-83
2021/12/20 12:44:39;;;;;;;;;;;8.60;99.90;;;;;;5066818;28;19932;-81
2021/12/20 12:50:52;;;;;;;;;;;8.80;99.90;;;;;;5068416;28;19923;-82
2021/12/20 12:53:57;;;;;;;;;;;8.60;99.90;;;;;;5077030;28;19935;-84
2021/12/20 12:56:26;;;;;;;;;;;7.50;99.90;;;;;;5043151;28;19925;-83
2021/12/20 12:59:12;;;;;;;;;;;7.50;99.90;;;;;;5062602;28;19925;-81
2021/12/20 13:02:05;;;;;;;;;;;8.70;99.90;;;;;;5044337;28;20680;-83
2021/12/20 13:04:42;;;;;;;;;;;8.70;99.90;;;;;;5062948;28;19935;-83
2021/12/20 13:08:19;;;;;;;;;;;9.90;99.90;;;;;;5046799;28;19929;-86
2021/12/20 13:18:14;;;;;;;;;;;8.70;99.90;;;;;;5041142;28;19936;-83
2021/12/20 13:21:09;;;;;;;;;;;10.40;99.90;;;;;;5063464;28;19929;-84
2021/12/20 13:27:35;;;;;;;;;;;8.70;99.90;;;;;;5058850;28;19935;-83
2021/12/20 13:30:54;;;;;;;;;;;8.60;99.90;;;;;;4714449;28;9999753;-84
2021/12/20 13:33:23;;;;;;;;;;;10.00;99.90;;;;;;5066043;28;19933;-81
2021/12/20 13:35:52;;;;;;;;;;;7.60;99.90;;;;;;5080298;28;20235;-82
2021/12/20 13:38:22;;;;;;;;;;;8.70;99.90;;;;;;5025947;28;19929;-83
2021/12/20 13:41:07;;;;;;;;;;;8.70;99.90;;;;;;5073690;28;20279;-82
2021/12/20 13:47:01;;;;;;;;;;;8.80;99.90;;;;;;5040109;28;20169;-80
2021/12/20 13:49:32;;;;;;;;;;;8.80;99.90;;;;;;5069956;28;19929;-78
2021/12/20 13:52:34;;;;;;;;;;;8.90;99.90;;;;;;5057747;28;20645;-86
2021/12/20 13:55:43;;;;;;;;;;;8.90;99.90;;;;;;5039213;28;19932;-85
2021/12/20 13:58:44;;;;;;;;;;;8.80;99.90;;;;;;5040277;22;19936;-86
2021/12/20 14:01:12;;;;;;;;;;;8.80;99.90;;;;;;5025578;28;19929;-86
2021/12/20 14:03:40;;;;;;;;;;;8.80;99.90;;;;;;5008798;28;20419;-87
2021/12/20 14:06:08;;;;;;;;;;;8.80;99.90;;;;;;5026795;28;19933;-89
2021/12/20 14:08:38;;;;;;;;;;;8.90;99.90;;;;;;5040569;28;19933;-87
2021/12/20 14:11:17;;;;;;;;;;;8.80;99.90;;;;;;5009417;28;19941;-88
2021/12/20 14:13:45;;;;;;;;;;;8.80;99.90;;;;;;4992158;28;19925;-86
2021/12/20 14:16:12;;;;;;;;;;;8.80;99.90;;;;;;5000547;28;19925;-87
2021/12/20 14:18:46;;;;;;;;;;;8.80;99.90;;;;;;5021900;28;19936;-90
2021/12/20 14:21:13;;;;;;;;;;;8.80;99.90;;;;;;5009507;28;19932;-88
2021/12/20 14:23:49;;;;;;;;;;;8.80;99.90;;;;;;5027753;28;19941;-87
2021/12/20 14:26:25;;;;;;;;;;;8.80;99.90;;;;;;5027358;28;19930;-88
2021/12/20 14:29:04;;;;;;;;;;;8.80;99.90;;;;;;5024078;28;19928;-86
2021/12/20 14:31:49;;;;;;;;;;;8.80;99.90;;;;;;5005818;28;19937;-91
2021/12/20 14:34:35;;;;;;;;;;;8.90;99.90;;;;;;5020055;28;19933;-88
2021/12/20 14:37:12;;;;;;;;;;;8.80;99.90;;;;;;5026050;28;19935;-90
2021/12/20 14:39:43;;;;;;;;;;;8.90;99.90;;;;;;5029403;28;20446;-87
2021/12/20 14:42:11;;;;;;;;;;;8.70;99.90;;;;;;5013167;28;19940;-89
2021/12/20 14:44:45;;;;;;;;;;;8.70;99.90;;;;;;5007824;28;19925;-86
2021/12/20 14:47:23;;;;;;;;;;;8.70;99.90;;;;;;5006997;28;19926;-89
2021/12/20 14:50:03;;;;;;;;;;;7.30;99.90;;;;;;5016158;28;20419;-89
2021/12/20 14:52:33;;;;;;;;;;;8.70;99.90;;;;;;5022342;28;19937;-87
2021/12/20 14:55:20;;;;;;;;;;;8.60;99.90;;;;;;5050915;28;19940;-91
2021/12/20 14:57:49;;;;;;;;;;;8.60;99.90;;;;;;5023201;28;19933;-87
2021/12/20 15:00:19;;;;;;;;;;;8.60;99.90;;;;;;5011267;28;20369;-86
2021/12/20 15:02:46;;;;;;;;;;;8.60;99.90;;;;;;5024771;28;20048;-88
2021/12/20 15:05:15;;;;;;;;;;;8.50;99.90;;;;;;5009175;28;20455;-88
2021/12/20 15:07:43;;;;;;;;;;;8.50;99.90;;;;;;5023724;28;19944;-88
2021/12/20 15:10:11;;;;;;;;;;;8.50;99.90;;;;;;5007087;28;19932;-88
2021/12/20 15:12:39;;;;;;;;;;;8.50;99.90;;;;;;5031924;28;19933;-87
2021/12/20 15:15:07;;;;;;;;;;;8.40;99.90;;;;;;5027760;28;19929;-87
2021/12/20 15:17:35;;;;;;;;;;;8.40;99.90;;;;;;5012156;28;19940;-87
2021/12/20 15:20:05;;;;;;;;;;;8.40;99.90;;;;;;5014331;28;20027;-86
2021/12/20 15:22:32;;;;;;;;;;;8.30;99.90;;;;;;5009104;28;19936;-86
2021/12/20 15:25:02;;;;;;;;;;;8.40;99.90;;;;;;5026061;28;19936;-88
2021/12/20 15:27:33;;;;;;;;;;;9.60;99.90;;;;;;5015722;28;19933;-88
2021/12/20 15:30:08;;;;;;;;;;;8.70;99.90;;;;;;5012877;28;19926;-91
2021/12/20 15:32:36;;;;;;;;;;;8.30;99.90;;;;;;5028880;28;19929;-86
2021/12/20 15:35:04;;;;;;;;;;;8.40;99.90;;;;;;5011793;28;20526;-87
2021/12/20 15:37:32;;;;;;;;;;;8.30;99.90;;;;;;5023854;28;19933;-87
2021/12/20 15:40:06;;;;;;;;;;;8.30;99.90;;;;;;5012781;28;19925;-85
2021/12/20 15:42:34;;;;;;;;;;;8.20;99.90;;;;;;5042581;28;19925;-87
2021/12/20 15:45:03;;;;;;;;;;;8.20;99.90;;;;;;5034075;28;19933;-88
2021/12/20 15:47:31;;;;;;;;;;;8.10;99.90;;;;;;5024334;28;19925;-89
2021/12/20 15:50:02;;;;;;;;;;;8.20;99.90;;;;;;5007698;28;19968;-89
2021/12/20 15:52:30;;;;;;;;;;;8.10;99.90;;;;;;5016654;28;19925;-89
2021/12/20 15:55:18;;;;;;;;;;;8.00;99.90;;;;;;5020868;28;19944;-88
2021/12/20 15:57:48;;;;;;;;;;;8.00;99.90;;;;;;5021085;28;19929;-89
2021/12/20 16:00:18;;;;;;;;;;;8.00;99.90;;;;;;5043393;28;19929;-92
2021/12/20 16:03:03;;;;;;;;;;;8.00;99.90;;;;;;5024850;28;21270;-86
2021/12/20 16:05:45;;;;;;;;;;;8.00;99.90;;;;;;5037880;28;19993;-91
2021/12/20 16:08:21;;;;;;;;;;;7.90;99.90;;;;;;5048819;22;19925;-86
2021/12/20 16:10:50;;;;;;;;;;;7.90;99.90;;;;;;5005592;28;19932;-86
2021/12/20 16:13:24;;;;;;;;;;;7.90;99.90;;;;;;5010860;28;20601;-88
2021/12/20 16:15:53;;;;;;;;;;;7.90;99.90;;;;;;5025684;28;20626;-86
2021/12/20 16:18:21;;;;;;;;;;;7.90;99.90;;;;;;5013323;28;19932;-87
2021/12/20 16:20:49;;;;;;;;;;;7.80;99.90;;;;;;5045949;28;19933;-87
2021/12/20 16:23:18;;;;;;;;;;;7.80;99.90;;;;;;5030312;28;19928;-87
2021/12/20 16:25:47;;;;;;;;;;;7.80;99.90;;;;;;5010826;28;19941;-87
2021/12/20 16:28:17;;;;;;;;;;;7.80;99.90;;;;;;5029777;28;19929;-88
2021/12/20 16:30:45;;;;;;;;;;;6.30;99.90;;;;;;5034159;28;19933;-88
2021/12/20 16:33:13;;;;;;;;;;;7.80;99.90;;;;;;5034647;28;19933;-88
2021/12/20 16:35:46;;;;;;;;;;;7.70;99.90;;;;;;5016447;28;19925;-89
2021/12/20 16:38:14;;;;;;;;;;;7.80;99.90;;;;;;5018603;28;19940;-88
2021/12/20 16:40:42;;;;;;;;;;;7.70;99.90;;;;;;5030959;28;19937;-89
2021/12/20 16:43:10;;;;;;;;;;;8.10;99.90;;;;;;5001383;28;19936;-88
2021/12/20 16:45:51;;;;;;;;;;;7.70;99.90;;;;;;5047830;28;19929;-88
2021/12/20 16:48:33;;;;;;;;;;;7.70;99.90;;;;;;5011234;28;19929;-88
2021/12/20 16:51:01;;;;;;;;;;;7.70;99.90;;;;;;5025606;28;19940;-88
2021/12/20 16:53:28;;;;;;;;;;;7.70;99.90;;;;;;4998298;28;19944;-87
2021/12/20 16:55:57;;;;;;;;;;;7.70;99.90;;;;;;5016368;28;19952;-88
2021/12/20 16:58:25;;;;;;;;;;;7.70;99.90;;;;;;5035406;28;19926;-87
2021/12/20 17:00:54;;;;;;;;;;;7.60;99.90;;;;;;5017265;28;20376;-87
2021/12/20 17:05:59;;;;;;;;;;;7.70;99.90;;;;;;5054686;28;19924;-87
2021/12/20 17:08:30;;;;;;;;;;;7.60;99.90;;;;;;5009804;28;20459;-86
2021/12/20 17:10:59;;;;;;;;;;;7.60;99.90;;;;;;5032799;28;19933;-89
2021/12/20 17:13:28;;;;;;;;;;;7.50;99.90;;;;;;5015997;28;19931;-88
2021/12/20 17:15:56;;;;;;;;;;;7.60;99.90;;;;;;5021087;28;20733;-90
2021/12/20 17:18:25;;;;;;;;;;;7.60;99.90;;;;;;5016061;28;19941;-88
2021/12/20 17:20:55;;;;;;;;;;;7.60;99.90;;;;;;5041972;28;19936;-87
2021/12/20 17:23:23;;;;;;;;;;;7.60;99.90;;;;;;5031359;28;19932;-87
2021/12/20 17:25:52;;;;;;;;;;;7.50;99.90;;;;;;5029855;28;19929;-87
2021/12/20 17:28:23;;;;;;;;;;;7.60;99.90;;;;;;5012398;28;20298;-89
2021/12/20 17:30:51;;;;;;;;;;;7.60;99.90;;;;;;5015063;28;20278;-88
2021/12/20 17:33:19;;;;;;;;;;;7.50;99.90;;;;;;5031345;28;19925;-88
2021/12/20 17:35:46;;;;;;;;;;;7.50;99.90;;;;;;4999585;28;19945;-86
2021/12/20 17:38:16;;;;;;;;;;;7.50;99.90;;;;;;5011900;28;19936;-87
2021/12/20 17:40:44;;;;;;;;;;;7.50;99.90;;;;;;5010989;28;20173;-86
2021/12/20 17:43:12;;;;;;;;;;;7.50;99.90;;;;;;4995718;28;19939;-88
2021/12/20 17:45:40;;;;;;;;;;;6.40;99.90;;;;;;5021619;28;19929;-88
2021/12/20 17:48:09;;;;;;;;;;;7.50;99.90;;;;;;5026226;28;19940;-88
2021/12/20 17:50:36;;;;;;;;;;;7.00;99.90;;;;;;5007336;28;19937;-88
2021/12/20 17:53:04;;;;;;;;;;;7.00;99.90;;;;;;5027401;28;19929;-89
2021/12/20 17:55:34;;;;;;;;;;;7.50;99.90;;;;;;4996643;28;19933;-87
2021/12/20 17:58:02;;;;;;;;;;;7.40;99.90;;;;;;5030097;28;19933;-89
2021/12/20 18:00:32;;;;;;;;;;;7.30;99.90;;;;;;5030423;28;19940;-89
2021/12/20 18:03:00;;;;;;;;;;;7.50;99.90;;;;;;5039308;28;19951;-88
2021/12/20 18:05:32;;;;;;;;;;;7.50;99.90;;;;;;5024190;28;19940;-88
2021/12/20 18:08:04;;;;;;;;;;;7.40;99.90;;;;;;4997804;28;19932;-89
2021/12/20 18:10:33;;;;;;;;;;;7.40;99.90;;;;;;4998376;28;19929;-88
2021/12/20 18:13:02;;;;;;;;;;;7.40;99.90;;;;;;5020308;28;19940;-88
2021/12/20 18:15:31;;;;;;;;;;;7.40;99.90;;;;;;4998188;28;19933;-90
2021/12/20 18:18:00;;;;;;;;;;;7.40;99.90;;;;;;5023889;28;19925;-90
2021/12/20 18:20:32;;;;;;;;;;;7.40;99.90;;;;;;5046547;28;19924;-89
2021/12/20 18:23:02;;;;;;;;;;;7.30;99.90;;;;;;5000555;28;19929;-90
2021/12/20 18:25:33;;;;;;;;;;;8.10;99.90;;;;;;5019104;28;19931;-89
2021/12/20 18:28:03;;;;;;;;;;;7.30;99.90;;;;;;5008429;28;20028;-88
2021/12/20 18:30:31;;;;;;;;;;;7.50;99.90;;;;;;5010107;28;20416;-89
2021/12/20 18:32:58;;;;;;;;;;;7.30;99.90;;;;;;5003411;28;20300;-87
2021/12/20 18:35:26;;;;;;;;;;;7.30;99.90;;;;;;5027133;28;19930;-90
2021/12/20 18:37:56;;;;;;;;;;;7.30;99.90;;;;;;4993115;28;19925;-87
2021/12/20 18:40:23;;;;;;;;;;;7.30;99.90;;;;;;5022643;28;20281;-87
2021/12/20 18:42:51;;;;;;;;;;;7.20;99.90;;;;;;4992521;28;20038;-88
2021/12/20 18:45:19;;;;;;;;;;;7.60;99.90;;;;;;5027647;28;19952;-88
2021/12/20 18:47:46;;;;;;;;;;;7.30;99.90;;;;;;5027752;28;19941;-89
2021/12/20 18:50:16;;;;;;;;;;;7.30;99.90;;;;;;5013466;28;19929;-90
2021/12/20 18:52:44;;;;;;;;;;;7.70;99.90;;;;;;5020888;28;20395;-90
2021/12/20 18:55:28;;;;;;;;;;;7.30;99.90;;;;;;5000400;28;20403;-89
2021/12/20 18:57:56;;;;;;;;;;;6.60;99.90;;;;;;5027492;28;19933;-89
2021/12/20 19:00:23;;;;;;;;;;;7.30;99.90;;;;;;5013603;28;19944;-90
2021/12/20 19:02:51;;;;;;;;;;;7.30;99.90;;;;;;5024697;28;19929;-88
2021/12/20 19:05:41;;;;;;;;;;;7.30;99.90;;;;;;5030548;28;19933;-90
2021/12/20 19:08:21;;;;;;;;;;;7.30;99.90;;;;;;5000610;28;19933;-89
2021/12/20 19:11:00;;;;;;;;;;;7.30;99.90;;;;;;5016215;28;19943;-89
2021/12/20 19:13:46;;;;;;;;;;;7.30;99.90;;;;;;5012563;28;19933;-89
2021/12/20 19:16:14;;;;;;;;;;;7.30;99.90;;;;;;5004633;28;20380;-87
2021/12/20 19:18:42;;;;;;;;;;;7.50;99.90;;;;;;5015095;28;19925;-88
2021/12/20 19:21:10;;;;;;;;;;;7.30;99.90;;;;;;5031200;28;19925;-86
2021/12/20 19:23:46;;;;;;;;;;;7.20;99.90;;;;;;5027754;28;20300;-88
2021/12/20 19:26:43;;;;;;;;;;;7.20;99.90;;;;;;5027655;28;19917;-86
2021/12/20 19:29:15;;;;;;;;;;;7.30;99.90;;;;;;5029024;28;19924;-88
2021/12/20 19:31:46;;;;;;;;;;;7.20;99.90;;;;;;5016172;28;19916;-90
2021/12/20 19:34:18;;;;;;;;;;;7.50;99.90;;;;;;5009876;28;19926;-89
2021/12/20 19:36:52;;;;;;;;;;;7.20;99.90;;;;;;5026759;28;19936;-89
2021/12/20 19:39:20;;;;;;;;;;;7.10;99.90;;;;;;5013593;28;19933;-88
2021/12/20 19:41:48;;;;;;;;;;;7.20;99.90;;;;;;5014340;28;19933;-89
2021/12/20 19:44:18;;;;;;;;;;;7.40;99.90;;;;;;4999795;28;19936;-89
2021/12/20 19:46:48;;;;;;;;;;;7.20;99.90;;;;;;5002252;28;19932;-89
2021/12/20 19:49:16;;;;;;;;;;;7.10;99.90;;;;;;5014229;28;19930;-89
2021/12/20 19:51:49;;;;;;;;;;;7.10;99.90;;;;;;5032048;28;19925;-89
2021/12/20 19:54:17;;;;;;;;;;;7.10;99.90;;;;;;5014884;28;20363;-90
2021/12/20 19:56:45;;;;;;;;;;;7.10;99.90;;;;;;5014249;28;19936;-88
2021/12/20 19:59:20;;;;;;;;;;;7.10;99.90;;;;;;5012398;28;19929;-88
2021/12/20 20:01:51;;;;;;;;;;;7.10;99.90;;;;;;5000642;28;19935;-90
2021/12/20 20:04:22;;;;;;;;;;;7.00;99.90;;;;;;5002740;28;19944;-90
2021/12/20 20:06:51;;;;;;;;;;;7.10;99.90;;;;;;5015122;28;19929;-88